sensor_id;sensor_type;location;lat;lon;timestamp;temperature;humidity
21950;DHT22;11139;51.284;7.226;2023-05-29T00:00:24;16.00;99.90
21950;DHT22;11139;51.284;7.226;2023-05-29T00:02:50;16.00;99.90
21950;DHT22;11139;51.284;7.226;2023-05-29T00:05:16;16.00;99.90
21950;DHT22;11139;51.284;7.226;2023-05-29T00:07:41;16.00;99.90
21950;DHT22;11139;51.284;7.226;2023-05-29T00:10:07;16.00;99.90
21950;DHT22;11139;51.284;7.226;2023-05-29T00:12:33;15.90;99.90
21950;DHT22;11139;51.284;7.226;2023-05-29T00:14:58;15.90;99.90
21950;DHT22;11139;51.284;7.226;2023-05-29T00:17:24;15.90;99.90
21950;DHT22;11139;51.284;7.226;2023-05-29T00:19:50;15.90;99.90
21950;DHT22;11139;51.284;7.226;2023-05-29T00:22:15;15.90;99.90
21950;DHT22;11139;51.284;7.226;2023-05-29T00:24:41;15.90;99.90
21950;DHT22;11139;51.284;7.226;2023-05-29T00:27:06;15.90;99.90
21950;DHT22;11139;51.284;7.226;2023-05-29T00:29:32;15.90;99.90
21950;DHT22;11139;51.284;7.226;2023-05-29T00:31:57;15.80;99.90
21950;DHT22;11139;51.284;7.226;2023-05-29T00:34:23;15.80;99.90
21950;DHT22;11139;51.284;7.226;2023-05-29T00:36:48;15.80;99.90
21950;DHT22;11139;51.284;7.226;2023-05-29T00:39:14;15.80;99.90
21950;DHT22;11139;51.284;7.226;2023-05-29T00:41:40;15.80;99.90
21950;DHT22;11139;51.284;7.226;2023-05-29T00:44:06;15.80;99.90
21950;DHT22;11139;51.284;7.226;2023-05-29T00:46:31;15.80;99.90
21950;DHT22;11139;51.284;7.226;2023-05-29T00:48:58;15.80;99.90
21950;DHT22;11139;51.284;7.226;2023-05-29T00:51:24;15.80;99.90
21950;DHT22;11139;51.284;7.226;2023-05-29T00:53:50;15.70;99.90
21950;DHT22;11139;51.284;7.226;2023-05-29T00:56:17;15.80;99.90
21950;DHT22;11139;51.284;7.226;2023-05-29T00:58:43;15.70;99.90
21950;DHT22;11139;51.284;7.226;2023-05-29T01:01:09;15.70;99.90
21950;DHT22;11139;51.284;7.226;2023-05-29T01:03:35;15.70;99.90
21950;DHT22;11139;51.284;7.226;2023-05-29T01:06:00;15.70;99.90
21950;DHT22;11139;51.284;7.226;2023-05-29T01:08:26;15.70;99.90
21950;DHT22;11139;51.284;7.226;2023-05-29T01:10:52;15.70;99.90
21950;DHT22;11139;51.284;7.226;2023-05-29T01:13:22;15.70;99.90
21950;DHT22;11139;51.284;7.226;2023-05-29T01:18:31;15.60;99.90
21950;DHT22;11139;51.284;7.226;2023-05-29T01:26:21;15.60;99.90
21950;DHT22;11139;51.284;7.226;2023-05-29T01:28:53;15.60;99.90
21950;DHT22;11139;51.284;7.226;2023-05-29T01:31:23;15.60;99.90
21950;DHT22;11139;51.284;7.226;2023-05-29T01:33:52;15.60;99.90
21950;DHT22;11139;51.284;7.226;2023-05-29T01:36:18;15.60;99.90
21950;DHT22;11139;51.284;7.226;2023-05-29T01:38:43;15.60;99.90
21950;DHT22;11139;51.284;7.226;2023-05-29T01:41:08;15.50;99.90
21950;DHT22;11139;51.284;7.226;2023-05-29T01:43:34;15.50;99.90
21950;DHT22;11139;51.284;7.226;2023-05-29T01:46:00;15.50;99.90
21950;DHT22;11139;51.284;7.226;2023-05-29T01:48:26;15.50;99.90
21950;DHT22;11139;51.284;7.226;2023-05-29T01:50:52;15.50;99.90
21950;DHT22;11139;51.284;7.226;2023-05-29T01:53:17;15.50;99.90
21950;DHT22;11139;51.284;7.226;2023-05-29T01:55:43;15.50;99.90
21950;DHT22;11139;51.284;7.226;2023-05-29T01:58:09;15.50;99.90
21950;DHT22;11139;51.284;7.226;2023-05-29T02:00:35;15.40;99.90
21950;DHT22;11139;51.284;7.226;2023-05-29T02:03:01;15.40;99.90
21950;DHT22;11139;51.284;7.226;2023-05-29T02:05:27;15.40;99.90
21950;DHT22;11139;51.284;7.226;2023-05-29T02:07:52;15.40;99.90
21950;DHT22;11139;51.284;7.226;2023-05-29T02:10:18;15.40;99.90
21950;DHT22;11139;51.284;7.226;2023-05-29T02:12:43;15.40;99.90
21950;DHT22;11139;51.284;7.226;2023-05-29T02:15:09;15.30;99.90
21950;DHT22;11139;51.284;7.226;2023-05-29T02:17:35;15.30;99.90
21950;DHT22;11139;51.284;7.226;2023-05-29T02:20:01;15.30;99.90
21950;DHT22;11139;51.284;7.226;2023-05-29T02:22:26;15.30;99.90
21950;DHT22;11139;51.284;7.226;2023-05-29T02:24:52;15.30;99.90
21950;DHT22;11139;51.284;7.226;2023-05-29T02:27:18;15.30;99.90
21950;DHT22;11139;51.284;7.226;2023-05-29T02:29:43;15.30;99.90
21950;DHT22;11139;51.284;7.226;2023-05-29T02:32:09;15.30;99.90
21950;DHT22;11139;51.284;7.226;2023-05-29T02:34:35;15.20;99.90
21950;DHT22;11139;51.284;7.226;2023-05-29T02:37:01;15.20;99.90
21950;DHT22;11139;51.284;7.226;2023-05-29T02:39:26;15.20;99.90
21950;DHT22;11139;51.284;7.226;2023-05-29T02:41:52;15.20;99.90
21950;DHT22;11139;51.284;7.226;2023-05-29T02:44:17;15.20;99.90
21950;DHT22;11139;51.284;7.226;2023-05-29T02:46:43;15.20;99.90
21950;DHT22;11139;51.284;7.226;2023-05-29T02:49:08;15.10;99.90
21950;DHT22;11139;51.284;7.226;2023-05-29T02:51:34;15.20;99.90
21950;DHT22;11139;51.284;7.226;2023-05-29T02:54:00;15.10;99.90
21950;DHT22;11139;51.284;7.226;2023-05-29T02:56:25;15.10;99.90
21950;DHT22;11139;51.284;7.226;2023-05-29T02:58:51;15.10;99.90
21950;DHT22;11139;51.284;7.226;2023-05-29T03:01:16;15.10;99.90
21950;DHT22;11139;51.284;7.226;2023-05-29T03:03:42;15.10;99.90
21950;DHT22;11139;51.284;7.226;2023-05-29T03:06:08;15.10;99.90
21950;DHT22;11139;51.284;7.226;2023-05-29T03:08:35;15.10;99.90
21950;DHT22;11139;51.284;7.226;2023-05-29T03:11:06;15.10;99.90
21950;DHT22;11139;51.284;7.226;2023-05-29T03:13:31;15.10;99.90
21950;DHT22;11139;51.284;7.226;2023-05-29T03:15:59;15.10;99.90
21950;DHT22;11139;51.284;7.226;2023-05-29T03:18:25;15.00;99.90
21950;DHT22;11139;51.284;7.226;2023-05-29T03:20:50;15.00;99.90
21950;DHT22;11139;51.284;7.226;2023-05-29T03:23:16;15.00;99.90
21950;DHT22;11139;51.284;7.226;2023-05-29T03:25:41;15.00;99.90
21950;DHT22;11139;51.284;7.226;2023-05-29T03:28:07;15.00;99.90
21950;DHT22;11139;51.284;7.226;2023-05-29T03:30:33;15.00;99.90
21950;DHT22;11139;51.284;7.226;2023-05-29T03:32:59;15.00;99.90
21950;DHT22;11139;51.284;7.226;2023-05-29T03:35:28;15.00;99.90
21950;DHT22;11139;51.284;7.226;2023-05-29T03:37:54;14.90;99.90
21950;DHT22;11139;51.284;7.226;2023-05-29T03:40:19;14.90;99.90
21950;DHT22;11139;51.284;7.226;2023-05-29T03:42:45;14.90;99.90
21950;DHT22;11139;51.284;7.226;2023-05-29T03:45:10;14.90;99.90
21950;DHT22;11139;51.284;7.226;2023-05-29T03:47:36;14.90;99.90
21950;DHT22;11139;51.284;7.226;2023-05-29T03:50:01;14.90;99.90
21950;DHT22;11139;51.284;7.226;2023-05-29T03:52:27;14.90;99.90
21950;DHT22;11139;51.284;7.226;2023-05-29T03:54:53;14.90;99.90
21950;DHT22;11139;51.284;7.226;2023-05-29T03:57:18;14.90;99.90
21950;DHT22;11139;51.284;7.226;2023-05-29T03:59:43;14.90;99.90
21950;DHT22;11139;51.284;7.226;2023-05-29T04:02:09;14.90;99.90
21950;DHT22;11139;51.284;7.226;2023-05-29T04:04:35;14.90;99.90
21950;DHT22;11139;51.284;7.226;2023-05-29T04:07:01;14.90;99.90
21950;DHT22;11139;51.284;7.226;2023-05-29T04:09:26;14.80;99.90
21950;DHT22;11139;51.284;7.226;2023-05-29T04:11:51;14.80;99.90
21950;DHT22;11139;51.284;7.226;2023-05-29T04:14:17;14.80;99.90
21950;DHT22;11139;51.284;7.226;2023-05-29T04:16:43;14.80;99.90
21950;DHT22;11139;51.284;7.226;2023-05-29T04:19:08;14.80;99.90
21950;DHT22;11139;51.284;7.226;2023-05-29T04:21:34;14.80;99.90
21950;DHT22;11139;51.284;7.226;2023-05-29T04:24:00;14.80;99.90
21950;DHT22;11139;51.284;7.226;2023-05-29T04:26:25;14.80;99.90
21950;DHT22;11139;51.284;7.226;2023-05-29T04:28:54;14.80;99.90
21950;DHT22;11139;51.284;7.226;2023-05-29T04:31:24;14.80;99.90
21950;DHT22;11139;51.284;7.226;2023-05-29T04:33:51;14.80;99.90
21950;DHT22;11139;51.284;7.226;2023-05-29T04:36:21;14.80;99.90
21950;DHT22;11139;51.284;7.226;2023-05-29T04:38:48;14.80;99.90
21950;DHT22;11139;51.284;7.226;2023-05-29T04:41:16;14.70;99.90
21950;DHT22;11139;51.284;7.226;2023-05-29T04:43:41;14.70;99.90
21950;DHT22;11139;51.284;7.226;2023-05-29T04:46:07;14.70;99.90
21950;DHT22;11139;51.284;7.226;2023-05-29T04:48:38;14.70;99.90
21950;DHT22;11139;51.284;7.226;2023-05-29T04:51:06;14.70;99.90
21950;DHT22;11139;51.284;7.226;2023-05-29T04:53:31;14.70;99.90
21950;DHT22;11139;51.284;7.226;2023-05-29T04:55:57;14.70;99.90
21950;DHT22;11139;51.284;7.226;2023-05-29T04:58:25;14.70;99.90
21950;DHT22;11139;51.284;7.226;2023-05-29T05:00:51;14.70;99.90
21950;DHT22;11139;51.284;7.226;2023-05-29T05:03:16;14.70;99.90
21950;DHT22;11139;51.284;7.226;2023-05-29T05:05:42;14.70;99.90
21950;DHT22;11139;51.284;7.226;2023-05-29T05:08:11;14.70;99.90
21950;DHT22;11139;51.284;7.226;2023-05-29T05:10:37;14.70;99.90
21950;DHT22;11139;51.284;7.226;2023-05-29T05:13:02;14.70;99.90
21950;DHT22;11139;51.284;7.226;2023-05-29T05:15:28;14.70;99.90
21950;DHT22;11139;51.284;7.226;2023-05-29T05:17:54;14.70;99.90
21950;DHT22;11139;51.284;7.226;2023-05-29T05:20:19;14.70;99.90
21950;DHT22;11139;51.284;7.226;2023-05-29T05:22:45;14.70;99.90
21950;DHT22;11139;51.284;7.226;2023-05-29T05:25:10;14.70;99.90
21950;DHT22;11139;51.284;7.226;2023-05-29T05:27:36;14.70;99.90
21950;DHT22;11139;51.284;7.226;2023-05-29T05:30:05;14.70;99.90
21950;DHT22;11139;51.284;7.226;2023-05-29T05:32:30;14.70;99.90
21950;DHT22;11139;51.284;7.226;2023-05-29T05:34:56;14.70;99.90
21950;DHT22;11139;51.284;7.226;2023-05-29T05:37:21;14.70;99.90
21950;DHT22;11139;51.284;7.226;2023-05-29T05:39:49;14.70;99.90
21950;DHT22;11139;51.284;7.226;2023-05-29T05:42:14;14.70;99.90
21950;DHT22;11139;51.284;7.226;2023-05-29T05:44:40;14.70;99.90
21950;DHT22;11139;51.284;7.226;2023-05-29T05:47:06;14.70;99.90
21950;DHT22;11139;51.284;7.226;2023-05-29T05:49:31;14.70;99.90
21950;DHT22;11139;51.284;7.226;2023-05-29T05:51:57;14.70;99.90
21950;DHT22;11139;51.284;7.226;2023-05-29T05:54:25;14.70;99.90
21950;DHT22;11139;51.284;7.226;2023-05-29T05:56:51;14.70;99.90
21950;DHT22;11139;51.284;7.226;2023-05-29T05:59:16;14.70;99.90
21950;DHT22;11139;51.284;7.226;2023-05-29T06:01:42;14.70;99.90
21950;DHT22;11139;51.284;7.226;2023-05-29T06:04:07;14.70;99.90
21950;DHT22;11139;51.284;7.226;2023-05-29T06:06:34;14.70;99.90
21950;DHT22;11139;51.284;7.226;2023-05-29T06:08:59;14.70;99.90
21950;DHT22;11139;51.284;7.226;2023-05-29T06:11:25;14.70;99.90
21950;DHT22;11139;51.284;7.226;2023-05-29T06:13:53;14.70;99.90
21950;DHT22;11139;51.284;7.226;2023-05-29T06:16:19;14.70;99.90
21950;DHT22;11139;51.284;7.226;2023-05-29T06:18:44;14.70;99.90
21950;DHT22;11139;51.284;7.226;2023-05-29T06:21:12;14.70;99.90
21950;DHT22;11139;51.284;7.226;2023-05-29T06:23:37;14.70;99.90
21950;DHT22;11139;51.284;7.226;2023-05-29T06:26:03;14.70;99.90
21950;DHT22;11139;51.284;7.226;2023-05-29T06:28:29;14.70;99.90
21950;DHT22;11139;51.284;7.226;2023-05-29T06:30:55;14.70;99.90
21950;DHT22;11139;51.284;7.226;2023-05-29T06:33:20;14.60;99.90
21950;DHT22;11139;51.284;7.226;2023-05-29T06:35:47;14.70;99.90
21950;DHT22;11139;51.284;7.226;2023-05-29T06:38:13;14.70;99.90
21950;DHT22;11139;51.284;7.226;2023-05-29T06:40:38;14.70;99.90
21950;DHT22;11139;51.284;7.226;2023-05-29T06:43:04;14.70;99.90
21950;DHT22;11139;51.284;7.226;2023-05-29T06:45:29;14.70;99.90
21950;DHT22;11139;51.284;7.226;2023-05-29T06:47:55;14.70;99.90
21950;DHT22;11139;51.284;7.226;2023-05-29T06:50:21;14.70;99.90
21950;DHT22;11139;51.284;7.226;2023-05-29T06:52:46;14.70;99.90
21950;DHT22;11139;51.284;7.226;2023-05-29T06:55:12;14.70;99.90
21950;DHT22;11139;51.284;7.226;2023-05-29T06:57:37;14.70;99.90
21950;DHT22;11139;51.284;7.226;2023-05-29T07:00:06;14.70;99.90
21950;DHT22;11139;51.284;7.226;2023-05-29T07:02:32;14.70;99.90
21950;DHT22;11139;51.284;7.226;2023-05-29T07:04:58;14.70;99.90
21950;DHT22;11139;51.284;7.226;2023-05-29T07:07:23;14.70;99.90
21950;DHT22;11139;51.284;7.226;2023-05-29T07:09:49;14.70;99.90
21950;DHT22;11139;51.284;7.226;2023-05-29T07:12:14;14.70;99.90
21950;DHT22;11139;51.284;7.226;2023-05-29T07:14:40;14.70;99.90
21950;DHT22;11139;51.284;7.226;2023-05-29T07:17:05;14.70;99.90
21950;DHT22;11139;51.284;7.226;2023-05-29T07:19:31;14.70;99.90
21950;DHT22;11139;51.284;7.226;2023-05-29T07:21:59;14.70;99.90
21950;DHT22;11139;51.284;7.226;2023-05-29T07:24:24;14.70;99.90
21950;DHT22;11139;51.284;7.226;2023-05-29T07:26:50;14.70;99.90
21950;DHT22;11139;51.284;7.226;2023-05-29T07:29:15;14.80;99.90
21950;DHT22;11139;51.284;7.226;2023-05-29T07:31:43;14.80;99.90
21950;DHT22;11139;51.284;7.226;2023-05-29T07:34:09;14.80;99.90
21950;DHT22;11139;51.284;7.226;2023-05-29T07:36:35;14.80;99.90
21950;DHT22;11139;51.284;7.226;2023-05-29T07:39:01;14.80;99.90
21950;DHT22;11139;51.284;7.226;2023-05-29T07:41:26;14.80;99.90
21950;DHT22;11139;51.284;7.226;2023-05-29T07:43:52;14.80;99.90
21950;DHT22;11139;51.284;7.226;2023-05-29T07:46:18;14.80;99.90
21950;DHT22;11139;51.284;7.226;2023-05-29T07:48:43;14.80;99.90
21950;DHT22;11139;51.284;7.226;2023-05-29T07:51:11;14.90;99.90
21950;DHT22;11139;51.284;7.226;2023-05-29T07:53:36;14.90;99.90
21950;DHT22;11139;51.284;7.226;2023-05-29T07:56:02;14.90;99.90
21950;DHT22;11139;51.284;7.226;2023-05-29T07:58:27;14.90;99.90
21950;DHT22;11139;51.284;7.226;2023-05-29T08:00:53;14.90;99.90
21950;DHT22;11139;51.284;7.226;2023-05-29T08:03:18;14.90;99.90
21950;DHT22;11139;51.284;7.226;2023-05-29T08:05:44;14.90;99.90
21950;DHT22;11139;51.284;7.226;2023-05-29T08:08:10;14.90;99.90
21950;DHT22;11139;51.284;7.226;2023-05-29T08:10:38;14.90;99.90
21950;DHT22;11139;51.284;7.226;2023-05-29T08:13:03;15.00;99.90
21950;DHT22;11139;51.284;7.226;2023-05-29T08:15:29;14.90;99.90
21950;DHT22;11139;51.284;7.226;2023-05-29T08:17:56;14.90;99.90
21950;DHT22;11139;51.284;7.226;2023-05-29T08:20:22;14.90;99.90
21950;DHT22;11139;51.284;7.226;2023-05-29T08:22:47;15.00;99.90
21950;DHT22;11139;51.284;7.226;2023-05-29T08:25:13;15.00;99.90
21950;DHT22;11139;51.284;7.226;2023-05-29T08:27:38;14.90;99.90
21950;DHT22;11139;51.284;7.226;2023-05-29T08:30:04;15.00;99.90
21950;DHT22;11139;51.284;7.226;2023-05-29T08:32:29;15.00;99.90
21950;DHT22;11139;51.284;7.226;2023-05-29T08:34:55;14.90;99.90
21950;DHT22;11139;51.284;7.226;2023-05-29T08:37:21;15.00;99.90
21950;DHT22;11139;51.284;7.226;2023-05-29T08:39:46;15.00;99.90
21950;DHT22;11139;51.284;7.226;2023-05-29T08:42:12;15.00;99.90
21950;DHT22;11139;51.284;7.226;2023-05-29T08:44:39;14.90;99.90
21950;DHT22;11139;51.284;7.226;2023-05-29T08:47:07;15.00;99.90
21950;DHT22;11139;51.284;7.226;2023-05-29T08:49:42;15.00;99.90
21950;DHT22;11139;51.284;7.226;2023-05-29T08:52:19;15.00;99.90
21950;DHT22;11139;51.284;7.226;2023-05-29T08:54:44;15.00;99.90
21950;DHT22;11139;51.284;7.226;2023-05-29T08:57:10;15.00;99.90
21950;DHT22;11139;51.284;7.226;2023-05-29T08:59:36;15.00;99.90
21950;DHT22;11139;51.284;7.226;2023-05-29T09:02:02;15.00;99.90
21950;DHT22;11139;51.284;7.226;2023-05-29T09:04:28;15.00;99.90
21950;DHT22;11139;51.284;7.226;2023-05-29T09:06:55;15.00;99.90
21950;DHT22;11139;51.284;7.226;2023-05-29T09:09:21;15.00;99.90
21950;DHT22;11139;51.284;7.226;2023-05-29T09:11:47;15.00;99.90
21950;DHT22;11139;51.284;7.226;2023-05-29T09:16:59;15.10;99.90
21950;DHT22;11139;51.284;7.226;2023-05-29T09:19:25;15.10;99.90
21950;DHT22;11139;51.284;7.226;2023-05-29T09:21:51;15.10;99.90
21950;DHT22;11139;51.284;7.226;2023-05-29T09:24:16;15.10;99.90
21950;DHT22;11139;51.284;7.226;2023-05-29T09:26:48;15.10;99.90
21950;DHT22;11139;51.284;7.226;2023-05-29T09:29:15;15.10;99.90
21950;DHT22;11139;51.284;7.226;2023-05-29T09:31:47;15.10;99.90
21950;DHT22;11139;51.284;7.226;2023-05-29T09:34:13;15.10;99.90
21950;DHT22;11139;51.284;7.226;2023-05-29T09:36:38;15.10;99.90
21950;DHT22;11139;51.284;7.226;2023-05-29T09:39:04;15.10;99.90
21950;DHT22;11139;51.284;7.226;2023-05-29T09:41:29;15.10;99.90
21950;DHT22;11139;51.284;7.226;2023-05-29T09:43:56;15.10;99.90
21950;DHT22;11139;51.284;7.226;2023-05-29T09:46:24;15.10;99.90
21950;DHT22;11139;51.284;7.226;2023-05-29T09:48:50;15.10;99.90
21950;DHT22;11139;51.284;7.226;2023-05-29T09:51:22;15.20;99.90
21950;DHT22;11139;51.284;7.226;2023-05-29T09:53:48;15.10;99.90
21950;DHT22;11139;51.284;7.226;2023-05-29T09:56:16;15.20;99.90
21950;DHT22;11139;51.284;7.226;2023-05-29T09:58:43;15.20;99.90
21950;DHT22;11139;51.284;7.226;2023-05-29T10:01:14;15.20;99.90
21950;DHT22;11139;51.284;7.226;2023-05-29T10:03:43;15.20;99.90
21950;DHT22;11139;51.284;7.226;2023-05-29T10:06:10;15.20;99.90
21950;DHT22;11139;51.284;7.226;2023-05-29T10:08:37;15.20;99.90
21950;DHT22;11139;51.284;7.226;2023-05-29T10:11:03;15.20;99.90
21950;DHT22;11139;51.284;7.226;2023-05-29T10:13:36;15.20;99.90
21950;DHT22;11139;51.284;7.226;2023-05-29T10:16:03;15.20;99.90
21950;DHT22;11139;51.284;7.226;2023-05-29T10:18:33;15.30;99.90
21950;DHT22;11139;51.284;7.226;2023-05-29T10:21:00;15.30;99.90
21950;DHT22;11139;51.284;7.226;2023-05-29T10:23:26;15.30;99.90
21950;DHT22;11139;51.284;7.226;2023-05-29T10:25:54;15.30;99.90
21950;DHT22;11139;51.284;7.226;2023-05-29T10:28:22;15.30;99.90
21950;DHT22;11139;51.284;7.226;2023-05-29T10:36:07;15.40;99.90
21950;DHT22;11139;51.284;7.226;2023-05-29T10:38:35;15.40;99.90
21950;DHT22;11139;51.284;7.226;2023-05-29T10:43:45;15.40;99.90
21950;DHT22;11139;51.284;7.226;2023-05-29T10:46:10;15.40;99.90
21950;DHT22;11139;51.284;7.226;2023-05-29T10:48:36;15.40;99.90
21950;DHT22;11139;51.284;7.226;2023-05-29T10:51:02;15.40;99.90
21950;DHT22;11139;51.284;7.226;2023-05-29T10:53:31;15.50;99.90
21950;DHT22;11139;51.284;7.226;2023-05-29T10:55:58;15.40;99.90
21950;DHT22;11139;51.284;7.226;2023-05-29T10:58:25;15.50;99.90
21950;DHT22;11139;51.284;7.226;2023-05-29T11:00:51;15.50;99.90
21950;DHT22;11139;51.284;7.226;2023-05-29T11:03:22;15.50;99.90
21950;DHT22;11139;51.284;7.226;2023-05-29T11:06:01;15.60;99.90
21950;DHT22;11139;51.284;7.226;2023-05-29T11:13:55;15.70;99.90
21950;DHT22;11139;51.284;7.226;2023-05-29T11:18:59;15.70;99.90
21950;DHT22;11139;51.284;7.226;2023-05-29T11:24:09;15.80;99.90
21950;DHT22;11139;51.284;7.226;2023-05-29T11:26:38;15.80;99.90
21950;DHT22;11139;51.284;7.226;2023-05-29T11:29:03;15.90;99.90
21950;DHT22;11139;51.284;7.226;2023-05-29T11:31:34;15.90;99.90
21950;DHT22;11139;51.284;7.226;2023-05-29T11:34:02;15.90;99.90
21950;DHT22;11139;51.284;7.226;2023-05-29T11:36:32;15.90;99.90
21950;DHT22;11139;51.284;7.226;2023-05-29T11:38:58;15.90;99.90
21950;DHT22;11139;51.284;7.226;2023-05-29T11:41:25;15.90;99.90
21950;DHT22;11139;51.284;7.226;2023-05-29T11:44:00;15.90;99.90
21950;DHT22;11139;51.284;7.226;2023-05-29T11:46:30;15.90;99.90
21950;DHT22;11139;51.284;7.226;2023-05-29T11:48:58;15.90;99.90
21950;DHT22;11139;51.284;7.226;2023-05-29T11:51:23;16.00;99.90
21950;DHT22;11139;51.284;7.226;2023-05-29T11:53:49;16.00;99.90
21950;DHT22;11139;51.284;7.226;2023-05-29T11:56:15;16.00;99.90
21950;DHT22;11139;51.284;7.226;2023-05-29T11:58:41;16.00;99.90
21950;DHT22;11139;51.284;7.226;2023-05-29T12:01:07;16.00;99.90
21950;DHT22;11139;51.284;7.226;2023-05-29T12:03:39;16.10;99.90
21950;DHT22;11139;51.284;7.226;2023-05-29T12:06:05;16.10;99.90
21950;DHT22;11139;51.284;7.226;2023-05-29T12:08:32;16.10;99.90
21950;DHT22;11139;51.284;7.226;2023-05-29T12:10:57;16.10;99.90
21950;DHT22;11139;51.284;7.226;2023-05-29T12:13:23;16.10;99.90
21950;DHT22;11139;51.284;7.226;2023-05-29T12:15:49;16.10;99.90
21950;DHT22;11139;51.284;7.226;2023-05-29T12:18:16;16.20;99.90
21950;DHT22;11139;51.284;7.226;2023-05-29T12:20:42;16.20;99.90
21950;DHT22;11139;51.284;7.226;2023-05-29T12:23:07;16.20;99.90
21950;DHT22;11139;51.284;7.226;2023-05-29T12:25:36;16.20;99.90
21950;DHT22;11139;51.284;7.226;2023-05-29T12:28:05;16.20;99.90
21950;DHT22;11139;51.284;7.226;2023-05-29T12:30:31;16.20;99.90
21950;DHT22;11139;51.284;7.226;2023-05-29T12:32:56;16.20;99.90
21950;DHT22;11139;51.284;7.226;2023-05-29T12:35:23;16.20;99.90
21950;DHT22;11139;51.284;7.226;2023-05-29T12:37:49;16.30;99.90
21950;DHT22;11139;51.284;7.226;2023-05-29T12:40:15;16.30;99.90
21950;DHT22;11139;51.284;7.226;2023-05-29T12:42:41;16.30;99.90
21950;DHT22;11139;51.284;7.226;2023-05-29T12:45:07;16.30;99.90
21950;DHT22;11139;51.284;7.226;2023-05-29T12:47:33;16.40;99.90
21950;DHT22;11139;51.284;7.226;2023-05-29T12:50:03;16.40;99.90
21950;DHT22;11139;51.284;7.226;2023-05-29T12:52:29;16.40;99.90
21950;DHT22;11139;51.284;7.226;2023-05-29T12:54:54;16.40;99.90
21950;DHT22;11139;51.284;7.226;2023-05-29T12:57:20;16.50;99.90
21950;DHT22;11139;51.284;7.226;2023-05-29T12:59:45;16.50;99.90
21950;DHT22;11139;51.284;7.226;2023-05-29T13:02:11;16.50;99.90
21950;DHT22;11139;51.284;7.226;2023-05-29T13:04:37;16.50;99.90
21950;DHT22;11139;51.284;7.226;2023-05-29T13:07:02;16.50;99.90
21950;DHT22;11139;51.284;7.226;2023-05-29T13:09:27;16.50;99.90
21950;DHT22;11139;51.284;7.226;2023-05-29T13:11:53;16.50;99.90
21950;DHT22;11139;51.284;7.226;2023-05-29T13:14:19;16.60;99.90
21950;DHT22;11139;51.284;7.226;2023-05-29T13:16:44;16.60;99.90
21950;DHT22;11139;51.284;7.226;2023-05-29T13:19:10;16.60;99.90
21950;DHT22;11139;51.284;7.226;2023-05-29T13:21:35;16.60;99.90
21950;DHT22;11139;51.284;7.226;2023-05-29T13:24:01;16.60;99.90
21950;DHT22;11139;51.284;7.226;2023-05-29T13:26:27;16.60;99.90
21950;DHT22;11139;51.284;7.226;2023-05-29T13:28:53;16.60;99.90
21950;DHT22;11139;51.284;7.226;2023-05-29T13:31:18;16.70;99.90
21950;DHT22;11139;51.284;7.226;2023-05-29T13:33:46;16.70;99.90
21950;DHT22;11139;51.284;7.226;2023-05-29T13:36:12;16.70;99.90
21950;DHT22;11139;51.284;7.226;2023-05-29T13:38:37;16.70;99.90
21950;DHT22;11139;51.284;7.226;2023-05-29T13:41:03;16.70;99.90
21950;DHT22;11139;51.284;7.226;2023-05-29T13:43:28;16.70;99.90
21950;DHT22;11139;51.284;7.226;2023-05-29T13:45:54;16.70;99.90
21950;DHT22;11139;51.284;7.226;2023-05-29T13:48:19;16.70;99.90
21950;DHT22;11139;51.284;7.226;2023-05-29T13:50:45;16.70;99.90
21950;DHT22;11139;51.284;7.226;2023-05-29T13:53:10;16.70;99.90
21950;DHT22;11139;51.284;7.226;2023-05-29T13:55:36;16.70;99.90
21950;DHT22;11139;51.284;7.226;2023-05-29T13:58:01;16.70;99.90
21950;DHT22;11139;51.284;7.226;2023-05-29T14:00:27;16.70;99.90
21950;DHT22;11139;51.284;7.226;2023-05-29T14:02:52;16.70;99.90
21950;DHT22;11139;51.284;7.226;2023-05-29T14:05:18;16.80;99.90
21950;DHT22;11139;51.284;7.226;2023-05-29T14:07:43;16.80;99.90
21950;DHT22;11139;51.284;7.226;2023-05-29T14:10:09;16.80;99.90
21950;DHT22;11139;51.284;7.226;2023-05-29T14:12:34;16.80;99.90
21950;DHT22;11139;51.284;7.226;2023-05-29T14:15:00;16.80;99.90
21950;DHT22;11139;51.284;7.226;2023-05-29T14:17:26;16.80;99.90
21950;DHT22;11139;51.284;7.226;2023-05-29T14:19:51;16.80;99.90
21950;DHT22;11139;51.284;7.226;2023-05-29T14:22:17;16.80;99.90
21950;DHT22;11139;51.284;7.226;2023-05-29T14:24:43;16.90;99.90
21950;DHT22;11139;51.284;7.226;2023-05-29T14:27:08;16.90;99.90
21950;DHT22;11139;51.284;7.226;2023-05-29T14:29:34;16.90;99.90
21950;DHT22;11139;51.284;7.226;2023-05-29T14:31:59;16.90;99.90
21950;DHT22;11139;51.284;7.226;2023-05-29T14:34:25;16.90;99.90
21950;DHT22;11139;51.284;7.226;2023-05-29T14:36:50;16.90;99.90
21950;DHT22;11139;51.284;7.226;2023-05-29T14:39:16;16.90;99.90
21950;DHT22;11139;51.284;7.226;2023-05-29T14:41:41;16.90;99.90
21950;DHT22;11139;51.284;7.226;2023-05-29T14:44:07;16.80;99.90
21950;DHT22;11139;51.284;7.226;2023-05-29T14:46:32;16.80;99.90
21950;DHT22;11139;51.284;7.226;2023-05-29T14:48:58;16.80;99.90
21950;DHT22;11139;51.284;7.226;2023-05-29T14:51:24;16.80;99.90
21950;DHT22;11139;51.284;7.226;2023-05-29T14:53:50;16.80;99.90
21950;DHT22;11139;51.284;7.226;2023-05-29T14:56:15;16.70;99.90
21950;DHT22;11139;51.284;7.226;2023-05-29T14:58:43;16.80;99.90
21950;DHT22;11139;51.284;7.226;2023-05-29T15:01:09;16.70;99.90
21950;DHT22;11139;51.284;7.226;2023-05-29T15:03:34;16.70;99.90
21950;DHT22;11139;51.284;7.226;2023-05-29T15:06:01;16.80;99.90
21950;DHT22;11139;51.284;7.226;2023-05-29T15:08:26;16.80;99.90
21950;DHT22;11139;51.284;7.226;2023-05-29T15:10:53;16.80;99.90
21950;DHT22;11139;51.284;7.226;2023-05-29T15:13:18;16.80;99.90
21950;DHT22;11139;51.284;7.226;2023-05-29T15:15:45;16.80;99.90
21950;DHT22;11139;51.284;7.226;2023-05-29T15:18:10;16.80;99.90
21950;DHT22;11139;51.284;7.226;2023-05-29T15:20:36;16.80;99.90
21950;DHT22;11139;51.284;7.226;2023-05-29T15:23:01;16.80;99.90
21950;DHT22;11139;51.284;7.226;2023-05-29T15:25:27;16.80;99.90
21950;DHT22;11139;51.284;7.226;2023-05-29T15:27:52;16.80;99.90
21950;DHT22;11139;51.284;7.226;2023-05-29T15:30:18;16.80;99.90
21950;DHT22;11139;51.284;7.226;2023-05-29T15:32:44;16.80;99.90
21950;DHT22;11139;51.284;7.226;2023-05-29T15:35:12;16.80;99.90
21950;DHT22;11139;51.284;7.226;2023-05-29T15:37:37;16.80;99.90
21950;DHT22;11139;51.284;7.226;2023-05-29T15:40:03;16.80;99.90
21950;DHT22;11139;51.284;7.226;2023-05-29T15:42:29;16.90;99.90
21950;DHT22;11139;51.284;7.226;2023-05-29T15:44:54;16.90;99.90
21950;DHT22;11139;51.284;7.226;2023-05-29T15:47:20;16.90;99.90
21950;DHT22;11139;51.284;7.226;2023-05-29T15:49:45;16.90;99.90
21950;DHT22;11139;51.284;7.226;2023-05-29T15:52:12;16.90;99.90